Latest Weather Observations for Griffith

IDN60801

Issued at 11:33 pm EST Sunday 28 August 2016 (issued every 30 minutes, with the page automatically refreshed every 10 minutes)

About weather observations | Map of weather stations | Latest weather observations for NSW | Other Formats
Station Details ID: 075041 Name: GRIFFITH AIRPORT AWS Lat: -34.25 Lon: 146.07 Height: 134.0 m
Data from the previous 72 hours. | See also: Recent months at Griffith
Date/Time
EST
Temp
°C
App
Temp
°C
Dew
Point
°C
Rel
Hum
%
Delta-T
°C
Wind Press
QNH
hPa
Press
MSL
hPa
Rain since
9am
mm
Dir  Spd
km/h
Gust
km/h
Spd
kts
Gust
kts
28/11:30pm 7.0 5.2 5.6 91 0.6 NW 4 7 2 4 1023.3 1023.5 0.0
28/11:00pm 6.6 5.5 5.1 90 0.7 CALM 0 0 0 0 1023.2 1023.4 0.0
28/10:30pm 8.6 7.4 4.6 76 1.8 CALM 0 0 0 0 1023.3 1023.5 0.0
28/10:00pm 8.8 6.2 4.2 73 2.0 NNE 7 9 4 5 1023.1 1023.3 0.0
28/09:30pm 10.0 7.1 4.8 70 2.4 NE 9 13 5 7 1022.7 1022.9 0.0
28/09:00pm 10.4 7.6 5.0 69 2.5 NNE 9 13 5 7 1022.8 1023.0 0.0
28/08:30pm 10.5 6.6 5.5 71 2.3 NE 15 19 8 10 1022.3 1022.5 0.0
28/08:00pm 9.9 6.4 5.3 73 2.1 NNE 13 17 7 9 1022.3 1022.5 0.0
28/07:30pm 9.9 6.4 5.3 73 2.1 NNE 13 13 7 7 1022.5 1022.7 0.0
28/07:00pm 10.0 6.7 4.4 68 2.5 NNE 11 13 6 7 1022.3 1022.5 0.0
28/06:30pm 9.5 7.0 4.9 73 2.1 NNE 7 9 4 5 1022.2 1022.4 0.0
28/06:00pm 11.3 9.9 5.6 68 2.6 N 2 6 1 3 1021.8 1022.0 0.0
28/05:30pm 14.6 12.3 5.7 55 4.3 NNW 7 9 4 5 1021.6 1021.8 0.0
28/05:00pm 15.6 13.0 4.0 46 5.4 NNW 7 11 4 6 1021.4 1021.6 0.0
28/04:30pm 17.2 14.1 3.8 41 6.3 N 9 11 5 6 1021.3 1021.5 0.0
28/04:00pm 17.0 13.6 4.0 42 6.1 N 11 15 6 8 1021.3 1021.5 0.0
28/03:30pm 17.8 14.3 3.3 38 6.8 NNW 11 19 6 10 1021.3 1021.5 0.0
28/03:00pm 17.8 14.4 4.0 40 6.5 WNW 11 17 6 9 1021.3 1021.5 0.0
28/02:30pm 17.6 14.5 5.5 45 5.9 NW 11 22 6 12 1021.4 1021.6 0.0
28/02:00pm 17.9 14.6 6.4 47 5.7 NW 13 20 7 11 1021.7 1021.9 0.0
28/01:30pm 17.2 12.8 4.9 44 5.9 NW 17 24 9 13 1022.2 1022.4 0.0
28/01:00pm 17.2 12.8 4.9 44 5.9 NW 17 22 9 12 1022.4 1022.6 0.0
28/12:30pm 17.1 13.4 6.3 49 5.3 NW 15 22 8 12 1022.9 1023.1 0.0
28/12:00pm 16.7 12.0 5.3 47 5.5 WNW 19 26 10 14 1023.3 1023.5 0.0
28/11:30am 16.6 13.1 7.0 53 4.8 NW 15 24 8 13 1023.7 1023.8 0.0
28/11:00am 15.5 10.8 5.1 50 4.9 NNW 19 24 10 13 1023.9 1024.0 0.0
28/10:30am 14.5 10.4 6.1 57 4.1 NNW 17 24 9 13 1024.2 1024.3 0.0
28/10:00am 13.4 9.2 5.6 59 3.7 NNW 17 20 9 11 1024.2 1024.3 0.0
28/09:30am 12.2 10.1 8.1 76 2.0 NNW 9 13 5 7 1024.2 1024.3 0.0
28/09:00am 9.7 8.2 7.0 83 1.3 WNW 4 7 2 4 1024.3 1024.4 0.0
28/08:30am 7.9 7.0 6.2 89 0.8 CALM 0 0 0 0 1024.3 1024.4 0.0
28/08:00am 6.2 4.2 6.1 99 0.0 SW 6 7 3 4 1024.1 1024.2 0.0
28/07:30am 4.9 3.0 4.8 99 0.0 WSW 4 7 2 4 1023.8 1023.9 0.0
28/07:00am 4.1 1.6 4.0 99 0.0 WSW 6 6 3 3 1023.9 1024.0 0.0
28/06:30am 3.8 1.3 3.7 99 0.0 WSW 6 7 3 4 1023.6 1023.7 0.0
28/06:00am 3.2 0.6 3.1 99 0.0 SW 6 7 3 4 1023.0 1023.2 0.0
28/05:30am 2.8 0.1 2.8 100 0.0 WSW 6 7 3 4 1022.8 1023.0 0.0
28/05:00am 2.2 -0.8 2.1 99 0.0 SW 7 7 4 4 1022.7 1022.9 0.0
28/04:30am 1.3 -1.6 1.2 99 0.0 SW 6 7 3 4 1022.5 1022.7 0.0
28/04:00am 1.4 -1.1 1.3 99 0.0 SW 4 7 2 4 1022.2 1022.4 0.0
28/03:30am 1.6 -1.3 1.5 99 0.0 SW 6 7 3 4 1022.3 1022.5 0.0
28/03:00am 2.1 0.4 2.0 99 0.0 CALM 0 0 0 0 1022.5 1022.7 0.0
28/02:30am 2.0 -0.8 1.9 99 0.0 SSW 6 7 3 4 1022.6 1022.8 0.0
28/02:00am 1.9 -0.9 1.8 99 0.0 SW 6 7 3 4 1022.8 1023.0 0.0
28/01:30am 1.8 0.1 1.7 99 0.0 CALM 0 0 0 0 1022.9 1023.1 0.0
28/01:00am 2.1 0.0 2.0 99 0.0 N 2 6 1 3 1023.3 1023.5 0.0
28/12:30am 2.5 0.9 2.4 99 0.0 CALM 0 0 0 0 1023.2 1023.4 0.0
28/12:00am 3.0 1.5 2.9 99 0.0 CALM 0 0 0 0 1023.0 1023.2 0.0
 
Date/Time
EST
Temp
°C
App
Temp
°C
Dew
Point
°C
Rel
Hum
%
Delta-T
°C
Wind Press
QNH
hPa
Press
MSL
hPa
Rain since
9am
mm
Dir  Spd
km/h
Gust
km/h
Spd
kts
Gust
kts
27/11:30pm 2.9 1.4 2.8 99 0.0 CALM 0 0 0 0 1023.1 1023.3 0.0
27/11:00pm 3.2 1.7 2.8 97 0.2 CALM 0 0 0 0 1023.0 1023.2 0.0
27/10:30pm 4.2 2.8 3.3 94 0.4 CALM 0 0 0 0 1023.4 1023.6 0.0
27/10:00pm 4.6 1.8 3.1 90 0.6 N 7 9 4 5 1023.4 1023.6 0.0
27/09:30pm 5.2 2.0 3.1 86 0.9 NNE 9 11 5 6 1023.4 1023.6 0.0
27/09:00pm 4.9 3.6 4.2 95 0.3 CALM 0 0 0 0 1023.9 1024.0 0.0
27/08:30pm 6.0 4.8 4.6 91 0.6 CALM 0 0 0 0 1023.9 1024.0 0.0
27/08:00pm 6.3 5.2 4.9 91 0.6 CALM 0 6 0 3 1023.6 1023.7 0.0
27/07:30pm 6.2 4.4 5.2 93 0.4 NNE 4 6 2 3 1023.4 1023.6 0.0
27/07:00pm 6.1 4.9 4.4 89 0.7 CALM 0 0 0 0 1023.1 1023.3 0.0
27/06:30pm 7.0 5.4 4.7 85 1.0 NNE 2 6 1 3 1023.0 1023.2 0.0
27/06:00pm 9.6 7.2 4.2 69 2.4 NNW 6 7 3 4 1022.7 1022.9 0.0
27/05:30pm 12.2 9.7 4.9 61 3.4 WNW 7 11 4 6 1022.7 1022.9 0.0
27/05:00pm 12.9 9.1 4.1 55 4.0 W 13 17 7 9 1022.8 1023.0 0.0
27/04:30pm 14.3 10.5 4.0 50 4.7 WNW 13 17 7 9 1022.5 1022.7 0.0
27/04:00pm 14.3 10.7 2.9 46 5.1 WNW 11 17 6 9 1022.2 1022.4 0.0
27/03:30pm 14.6 10.6 3.1 46 5.2 WNW 13 19 7 10 1022.4 1022.6 0.0
27/03:00pm 14.4 10.1 3.2 47 5.1 NW 15 22 8 12 1022.6 1022.8 0.0
27/02:30pm 14.6 10.8 3.7 48 5.0 NW 13 19 7 10 1023.0 1023.2 0.0
27/02:00pm 14.4 9.6 4.4 51 4.6 NW 19 26 10 14 1023.2 1023.4 0.0
27/01:30pm 13.6 9.4 3.7 51 4.5 WNW 15 19 8 10 1023.6 1023.7 0.0
27/01:00pm 14.2 10.4 3.7 49 4.8 NW 13 20 7 11 1024.0 1024.1 0.0
27/12:30pm 13.5 9.0 4.4 54 4.2 W 17 20 9 11 1024.2 1024.3 0.0
27/12:00pm 13.9 10.2 4.5 53 4.3 WSW 13 24 7 13 1024.8 1025.0 0.0
27/11:30am 12.9 8.4 4.3 56 3.9 WSW 17 22 9 12 1025.1 1025.3 0.0
27/11:00am 12.5 8.8 4.2 57 3.8 WNW 13 19 7 10 1025.3 1025.5 0.0
27/10:30am 11.8 8.7 5.4 65 3.0 NW 11 17 6 9 1025.4 1025.6 0.0
27/10:00am 10.5 8.0 6.5 76 1.9 NW 9 17 5 9 1025.8 1026.0 0.0
27/09:30am 9.1 6.5 6.2 82 1.3 WNW 9 13 5 7 1025.9 1026.1 0.0
27/09:00am 7.6 5.7 6.5 93 0.5 NNW 6 7 3 4 1025.8 1026.0 0.2
27/08:30am 5.4 3.0 5.3 99 0.0 NW 7 11 4 6 1025.6 1025.8 0.2
27/08:00am 2.9 1.4 2.9 100 0.0 CALM 0 6 0 3 1025.2 1025.4 0.2
27/07:30am 1.2 -0.6 1.2 100 0.0 CALM 0 0 0 0 1024.9 1025.1 0.0
27/07:00am -0.6 -2.7 -0.7 99 0.0 CALM 0 4 0 2 1024.6 1024.7 0.0
27/06:39am -0.6 -2.7 -0.7 99 0.0 CALM 0 0 0 0 1024.4 1024.5 0.0
27/06:30am -0.2 -2.2 -0.3 99 0.0 CALM 0 0 0 0 1024.2 1024.3 0.0
27/06:09am -0.4 -2.5 -0.5 99 0.0 CALM 0 0 0 0 1023.9 1024.0 0.0
27/06:00am -0.2 -2.2 -0.3 99 0.0 CALM 0 0 0 0 1023.8 1023.9 0.0
27/05:49am -0.6 -2.7 -0.7 99 0.0 CALM 0 0 0 0 1023.8 1023.9 0.0
27/05:30am -0.5 -2.9 -0.6 99 0.0 SSW 2 6 1 3 1023.7 1023.8 0.0
27/05:00am -0.5 -2.6 -0.6 99 0.0 CALM 0 0 0 0 1023.7 1023.8 0.0
27/04:30am 0.4 -1.9 0.3 99 0.0 NNE 2 9 1 5 1023.3 1023.5 0.0
27/04:00am 1.5 -0.3 1.4 99 0.0 CALM 0 0 0 0 1023.2 1023.4 0.0
27/03:30am 1.9 -0.5 1.9 100 0.0 WSW 4 7 2 4 1023.4 1023.6 0.0
27/03:00am 1.4 -1.5 1.3 99 0.0 SW 6 9 3 5 1023.7 1023.8 0.0
27/02:30am 1.1 -0.7 1.0 99 0.0 CALM 0 0 0 0 1023.7 1023.8 0.0
27/02:00am 0.4 -1.5 0.3 99 0.0 CALM 0 0 0 0 1024.0 1024.1 0.0
27/01:30am 1.2 -0.6 1.1 99 0.0 CALM 0 0 0 0 1024.2 1024.3 0.0
27/01:00am 1.5 -0.3 1.4 99 0.0 CALM 0 0 0 0 1024.2 1024.3 0.0
27/12:30am 1.2 -0.6 1.1 99 0.0 CALM 0 0 0 0 1024.2 1024.3 0.0
27/12:00am 1.9 0.2 1.8 99 0.0 CALM 0 0 0 0 1024.2 1024.3 0.0
 
Date/Time
EST
Temp
°C
App
Temp
°C
Dew
Point
°C
Rel
Hum
%
Delta-T
°C
Wind Press
QNH
hPa
Press
MSL
hPa
Rain since
9am
mm
Dir  Spd
km/h
Gust
km/h
Spd
kts
Gust
kts
26/11:30pm 1.1 -0.7 1.0 99 0.0 CALM 0 0 0 0 1024.4 1024.5 0.0
26/11:00pm 1.6 -0.2 1.5 99 0.0 CALM 0 0 0 0 1024.3 1024.4 0.0
26/10:30pm 2.4 0.0 2.3 99 0.0 SSW 4 6 2 3 1024.1 1024.2 0.0
26/10:00pm 2.9 0.6 2.6 98 0.1 SW 4 9 2 5 1024.1 1024.2 0.0
26/09:30pm 3.1 1.0 1.9 92 0.5 SSW 2 7 1 4 1023.7 1023.8 0.0
26/09:00pm 3.8 0.9 2.5 91 0.5 S 7 9 4 5 1023.6 1023.7 0.0
26/08:30pm 5.6 2.5 3.6 87 0.8 S 9 9 5 5 1023.2 1023.4 0.0
26/08:00pm 4.8 1.6 2.8 87 0.8 SSW 9 11 5 6 1023.1 1023.3 0.0
26/07:30pm 5.4 2.6 3.3 86 0.9 SSW 7 7 4 4 1023.0 1023.2 0.0
26/07:00pm 6.7 3.8 2.8 76 1.6 SSW 7 9 4 5 1022.8 1023.0 0.0
26/06:30pm 8.4 4.8 3.1 69 2.3 SSW 11 15 6 8 1022.5 1022.7 0.0
26/06:00pm 9.2 5.2 3.0 65 2.7 SW 13 17 7 9 1022.3 1022.5 0.0
26/05:30pm 11.2 6.3 1.7 52 4.0 SSW 17 22 9 12 1022.0 1022.2 0.0
26/05:00pm 12.7 7.4 3.1 52 4.3 SW 20 28 11 15 1021.7 1021.9 0.0
26/04:30pm 11.7 7.0 3.2 56 3.8 SSW 17 22 9 12 1021.6 1021.8 0.0
26/04:00pm 12.5 6.5 3.2 53 4.1 SW 24 35 13 19 1021.3 1021.5 0.0
26/03:30pm 13.8 9.1 3.3 49 4.7 SW 17 26 9 14 1021.2 1021.4 0.0
26/03:00pm 12.2 7.0 3.4 55 3.9 SW 20 30 11 16 1021.3 1021.5 0.0
26/02:30pm 13.0 8.2 2.6 49 4.6 SW 17 24 9 13 1021.3 1021.5 0.0
26/02:00pm 13.6 8.3 2.8 48 4.8 SW 20 28 11 15 1021.5 1021.7 0.0
26/01:30pm 13.0 8.4 3.9 54 4.1 SSW 17 24 9 13 1021.7 1021.9 0.0
26/01:00pm 11.6 7.5 4.6 62 3.2 SSW 15 20 8 11 1021.8 1022.0 0.0
26/12:30pm 12.3 8.7 5.2 62 3.3 SSW 13 22 7 12 1022.0 1022.2 0.0
26/12:00pm 12.0 8.6 6.1 67 2.8 SSW 13 24 7 13 1022.3 1022.5 0.0
26/11:30am 11.4 7.3 6.1 70 2.5 SSW 17 22 9 12 1022.7 1022.9 0.0
26/11:00am 10.8 6.7 6.0 72 2.2 SSW 17 24 9 13 1022.8 1023.0 0.0
26/10:30am 10.4 6.4 6.5 77 1.8 S 17 22 9 12 1022.9 1023.1 0.0
26/10:00am 9.6 6.0 6.7 82 1.4 SSW 15 20 8 11 1023.0 1023.2 0.0
26/09:30am 9.0 5.9 7.1 88 0.9 S 13 19 7 10 1023.0 1023.2 0.0
26/09:00am 7.5 5.2 7.4 99 0.0 S 9 17 5 9 1023.0 1023.2 0.0
26/08:30am 5.0 3.9 5.0 100 0.0 CALM 0 0 0 0 1022.7 1022.9 0.0
26/08:00am 3.8 2.4 3.8 100 0.0 CALM 0 0 0 0 1022.5 1022.7 0.0
26/07:30am 1.0 -0.8 0.9 99 0.0 CALM 0 0 0 0 1022.4 1022.6 0.0
26/07:00am -0.6 -2.7 -0.7 99 0.0 CALM 0 0 0 0 1021.9 1022.1 0.0
26/06:35am -0.5 -2.9 -0.6 99 0.0 N 2 6 1 3 1021.5 1021.7 0.0
26/06:30am -0.1 -3.3 -0.2 99 0.0 N 6 7 3 4 1021.4 1021.6 0.0
26/06:22am -0.5 -3.9 -0.6 99 0.0 NNE 7 9 4 5 1021.2 1021.4 0.0
26/06:17am -0.5 -3.7 -0.6 99 0.0 NE 6 7 3 4 1021.2 1021.4 0.0
26/06:13am -0.8 -3.3 -0.9 99 0.0 NE 2 7 1 4 1021.2 1021.4 0.0
26/06:00am -0.3 -2.3 -0.4 99 0.0 CALM 0 0 0 0 1021.0 1021.2 0.0
26/05:30am -0.5 -2.6 -0.6 99 0.0 CALM 0 0 0 0 1020.8 1021.0 0.0
26/05:00am -0.1 -3.3 -0.2 99 0.0 WSW 6 7 3 4 1020.4 1020.6 0.0
26/04:30am 0.8 -2.2 0.7 99 0.0 NNE 6 11 3 6 1020.0 1020.2 0.0
26/04:00am 1.1 -2.1 1.0 99 0.0 NNW 7 9 4 5 1019.7 1019.9 0.0
26/03:30am 1.7 -1.7 1.6 99 0.0 WNW 9 11 5 6 1019.5 1019.7 0.0
26/03:00am 1.8 -1.2 1.7 99 0.0 WNW 7 9 4 5 1019.5 1019.7 0.0
26/02:30am 2.8 0.1 2.7 99 0.0 W 6 7 3 4 1019.6 1019.8 0.0
26/02:00am 3.1 0.5 3.0 99 0.0 W 6 7 3 4 1019.6 1019.8 0.0
26/01:30am 3.4 1.2 3.3 99 0.0 SW 4 7 2 4 1019.6 1019.8 0.0
26/01:00am 3.4 0.6 3.3 99 0.0 W 7 11 4 6 1019.5 1019.7 0.0
26/12:30am 2.5 -0.4 2.4 99 0.0 N 7 9 4 5 1019.5 1019.7 0.0
26/12:00am 3.6 0.0 2.9 95 0.3 SW 11 15 6 8 1019.3 1019.5 0.0

Other Formats:

Comma delimited format used in spreadsheet applications
http://www.bom.gov.au/fwo/IDN60801/IDN60801.95704.axf

JavaScript Object Notation format (JSON) in row-major order
http://www.bom.gov.au/fwo/IDN60801/IDN60801.95704.json